createdAt,value
2023-02-11T00:01:46.527Z,50.44
2023-02-11T00:04:48.176Z,50.76
2023-02-11T00:07:49.810Z,50.76
2023-02-11T00:10:53.626Z,50.95
2023-02-11T00:13:55.235Z,51.13
2023-02-11T00:16:57.003Z,51.22
2023-02-11T00:19:58.697Z,51.08
2023-02-11T00:23:00.293Z,50.93
2023-02-11T00:26:01.978Z,50.68
2023-02-11T00:29:05.277Z,50.59
2023-02-11T00:32:09.004Z,51.00
2023-02-11T00:35:10.716Z,50.94
2023-02-11T00:38:14.466Z,50.87
2023-02-11T00:41:16.925Z,50.92
2023-02-11T00:44:18.558Z,50.75
2023-02-11T00:47:22.730Z,51.03
2023-02-11T00:50:24.682Z,51.13
2023-02-11T00:53:26.378Z,50.91
2023-02-11T00:56:28.077Z,51.10
2023-02-11T00:59:30.964Z,51.13
2023-02-11T01:02:32.644Z,51.24
2023-02-11T01:05:34.431Z,51.58
2023-02-11T01:08:36.876Z,51.63
2023-02-11T01:11:38.605Z,51.46
2023-02-11T01:14:40.241Z,51.57
2023-02-11T01:17:42.193Z,51.60
2023-02-11T01:20:43.938Z,51.78
2023-02-11T01:23:45.590Z,51.50
2023-02-11T01:26:47.222Z,51.40
2023-02-11T01:29:48.837Z,51.50
2023-02-11T01:32:50.462Z,51.60
2023-02-11T01:35:52.866Z,51.69
2023-02-11T01:38:54.818Z,51.78
2023-02-11T01:41:56.484Z,51.90
2023-02-11T01:44:58.626Z,52.12
2023-02-11T01:48:02.633Z,52.22
2023-02-11T01:51:12.585Z,52.38
2023-02-11T01:54:37.662Z,52.45
2023-02-11T01:57:42.691Z,52.63
2023-02-11T02:00:44.317Z,52.61
2023-02-11T02:03:48.386Z,52.68
2023-02-11T02:07:01.398Z,52.93
2023-02-11T02:10:12.110Z,52.97
2023-02-11T02:13:14.291Z,52.84
2023-02-11T02:16:18.983Z,53.07
2023-02-11T02:19:44.979Z,53.03
2023-02-11T02:23:04.973Z,53.14
2023-02-11T02:26:48.510Z,53.31
2023-02-11T02:30:00.344Z,53.26
2023-02-11T02:33:56.678Z,53.46
2023-02-11T02:37:07.360Z,53.56
2023-02-11T02:40:17.601Z,53.58
2023-02-11T02:43:19.737Z,53.88
2023-02-11T02:46:30.832Z,53.68
2023-02-11T02:49:32.456Z,53.68
2023-02-11T02:52:57.420Z,53.57
2023-02-11T02:56:24.085Z,54.01
2023-02-11T02:59:34.736Z,54.13
2023-02-11T03:02:58.877Z,54.20
2023-02-11T03:06:08.653Z,54.11
2023-02-11T03:09:19.074Z,54.40
2023-02-11T03:12:22.151Z,54.41
2023-02-11T03:15:26.376Z,54.47
2023-02-11T03:18:29.144Z,54.53
2023-02-11T03:21:32.074Z,54.83
2023-02-11T03:24:36.278Z,54.87
2023-02-11T03:27:48.068Z,54.87
2023-02-11T03:31:15.006Z,54.91
2023-02-11T03:34:45.185Z,55.03
2023-02-11T03:37:58.013Z,55.01
2023-02-11T03:41:00.924Z,54.90
2023-02-11T03:44:02.960Z,55.03
2023-02-11T03:47:08.388Z,55.27
2023-02-11T03:50:11.534Z,55.56
2023-02-11T03:53:14.525Z,55.41
2023-02-11T03:56:21.929Z,55.59
2023-02-11T03:59:23.916Z,55.79
2023-02-11T04:02:29.835Z,56.06
2023-02-11T04:05:32.190Z,56.52
2023-02-11T04:08:34.314Z,57.09
2023-02-11T04:11:36.047Z,57.23
2023-02-11T04:14:37.845Z,57.50
2023-02-11T04:17:39.845Z,57.23
2023-02-11T04:20:41.578Z,57.21
2023-02-11T04:23:43.232Z,57.29
2023-02-11T04:26:44.905Z,57.05
2023-02-11T04:29:46.562Z,56.93
2023-02-11T04:32:48.324Z,56.99
2023-02-11T04:35:50.311Z,56.95
2023-02-11T04:38:52.091Z,56.88
2023-02-11T04:41:53.740Z,57.04
2023-02-11T04:44:55.441Z,57.11
2023-02-11T04:47:57.112Z,57.34
2023-02-11T04:50:58.758Z,57.06
2023-02-11T04:54:00.455Z,57.21
2023-02-11T04:57:02.687Z,57.23
2023-02-11T05:00:05.374Z,57.26
2023-02-11T05:03:06.977Z,57.25
2023-02-11T05:06:10.201Z,57.41
2023-02-11T05:09:15.162Z,57.27
2023-02-11T05:12:16.869Z,57.44
2023-02-11T05:15:18.569Z,57.52
2023-02-11T05:18:20.232Z,57.59
2023-02-11T05:21:22.076Z,57.71
2023-02-11T05:24:23.895Z,57.97
2023-02-11T05:27:25.621Z,57.83
2023-02-11T05:30:27.656Z,58.07
2023-02-11T05:33:29.352Z,58.02
2023-02-11T05:36:33.341Z,58.27
2023-02-11T05:39:35.337Z,58.23
2023-02-11T05:42:37.057Z,58.07
2023-02-11T05:45:38.724Z,58.00
2023-02-11T05:48:40.353Z,57.96
2023-02-11T05:51:42.005Z,58.09
2023-02-11T05:54:43.665Z,58.12
2023-02-11T05:57:45.321Z,58.38
2023-02-11T06:00:46.979Z,58.37
2023-02-11T06:03:50.206Z,58.43
2023-02-11T06:06:51.937Z,58.60
2023-02-11T06:09:53.582Z,58.82
2023-02-11T06:12:55.264Z,59.10
2023-02-11T06:15:58.396Z,59.51
2023-02-11T06:19:00.139Z,59.93
2023-02-11T06:22:01.983Z,60.06
2023-02-11T06:25:03.941Z,59.94
2023-02-11T06:28:05.668Z,59.74
2023-02-11T06:31:07.932Z,59.80
2023-02-11T06:34:10.583Z,59.84
2023-02-11T06:37:12.567Z,59.72
2023-02-11T06:40:14.301Z,59.71
2023-02-11T06:43:16.537Z,59.79
2023-02-11T06:46:18.292Z,59.82
2023-02-11T06:49:20.152Z,59.79
2023-02-11T06:52:21.780Z,59.83
2023-02-11T06:55:23.455Z,59.73
2023-02-11T06:58:25.113Z,59.85
2023-02-11T07:01:27.797Z,59.57
2023-02-11T07:04:29.460Z,59.88
2023-02-11T07:07:34.115Z,59.79
2023-02-11T07:10:36.375Z,59.76
2023-02-11T07:13:38.173Z,59.94
2023-02-11T07:16:39.890Z,60.01
2023-02-11T07:19:41.652Z,59.90
2023-02-11T07:22:43.280Z,60.30
2023-02-11T07:25:44.950Z,60.08
2023-02-11T07:28:46.706Z,60.13
2023-02-11T07:31:48.558Z,60.44
2023-02-11T07:34:50.495Z,60.54
2023-02-11T07:37:52.346Z,60.45
2023-02-11T07:40:54.065Z,60.42
2023-02-11T07:43:56.102Z,60.35
2023-02-11T07:46:57.866Z,60.40
2023-02-11T07:49:59.628Z,60.24
2023-02-11T07:53:01.290Z,60.19
2023-02-11T07:56:04.632Z,60.31
2023-02-11T07:59:06.344Z,60.32
2023-02-11T08:02:09.420Z,60.34
2023-02-11T08:05:11.153Z,60.38
2023-02-11T08:08:12.781Z,60.40
2023-02-11T08:11:17.249Z,60.27
2023-02-11T08:14:20.633Z,60.26
2023-02-11T08:17:22.297Z,60.11
2023-02-11T08:20:23.925Z,60.13
2023-02-11T08:23:25.588Z,60.14
2023-02-11T08:26:29.897Z,60.17
2023-02-11T08:29:31.649Z,59.93
2023-02-11T08:32:34.898Z,59.85
2023-02-11T08:35:37.438Z,59.73
2023-02-11T08:38:39.246Z,59.81
2023-02-11T08:41:41.033Z,59.53
2023-02-11T08:44:43.923Z,59.41
2023-02-11T08:47:45.618Z,59.36
2023-02-11T08:50:47.467Z,59.47
2023-02-11T08:53:49.730Z,59.21
2023-02-11T08:56:51.957Z,59.25
2023-02-11T08:59:53.620Z,58.88
2023-02-11T09:02:55.432Z,58.84
2023-02-11T09:05:57.288Z,58.54
2023-02-11T09:08:59.251Z,58.44
2023-02-11T09:12:01.418Z,58.29
2023-02-11T09:15:03.224Z,58.06
2023-02-11T09:18:05.633Z,58.03
2023-02-11T09:21:09.675Z,57.98
2023-02-11T09:24:11.622Z,57.86
2023-02-11T09:27:13.340Z,57.78
2023-02-11T09:30:15.028Z,57.53
2023-02-11T09:33:16.696Z,57.34
2023-02-11T09:36:26.144Z,57.12
2023-02-11T09:39:29.453Z,57.00
2023-02-11T09:42:56.780Z,56.74
2023-02-11T09:46:01.211Z,56.34
2023-02-11T09:49:04.853Z,56.09
2023-02-11T09:52:21.361Z,55.73
2023-02-11T09:55:25.329Z,55.44
2023-02-11T09:58:29.970Z,55.29
2023-02-11T10:01:42.808Z,54.94
2023-02-11T10:04:47.857Z,54.69
2023-02-11T10:08:27.347Z,54.53
2023-02-11T10:12:06.462Z,54.35
2023-02-11T10:15:33.017Z,54.22
2023-02-11T10:19:05.484Z,53.85
2023-02-11T10:22:15.600Z,53.64
2023-02-11T10:25:24.878Z,53.62
2023-02-11T10:28:47.629Z,53.54
2023-02-11T10:31:51.240Z,53.32
2023-02-11T10:34:56.480Z,53.16
2023-02-11T10:37:59.428Z,53.09
2023-02-11T10:41:01.234Z,52.79
2023-02-11T10:44:06.795Z,52.61
2023-02-11T10:47:21.559Z,52.38
2023-02-11T10:50:35.114Z,52.25
2023-02-11T10:53:37.256Z,52.17
2023-02-11T10:56:44.552Z,52.09
2023-02-11T10:59:46.312Z,51.79
2023-02-11T11:02:54.678Z,51.61
2023-02-11T11:05:59.909Z,51.46
2023-02-11T11:09:02.258Z,51.50
2023-02-11T11:12:04.113Z,51.40
2023-02-11T11:15:11.810Z,51.13
2023-02-11T11:18:22.470Z,51.04
2023-02-11T11:21:26.994Z,50.93
2023-02-11T11:24:34.660Z,50.84
2023-02-11T11:27:37.291Z,50.68
2023-02-11T11:30:42.269Z,50.50
2023-02-11T11:33:47.119Z,50.41
2023-02-11T11:36:50.152Z,50.14
2023-02-11T11:40:10.046Z,49.88
2023-02-11T11:43:14.853Z,49.58
2023-02-11T11:46:24.576Z,49.52
2023-02-11T11:49:30.587Z,49.16
2023-02-11T11:52:32.353Z,49.10
2023-02-11T11:55:39.552Z,48.77
2023-02-11T11:58:41.611Z,48.40
2023-02-11T12:02:08.442Z,48.36
2023-02-11T12:05:39.279Z,48.08
2023-02-11T12:09:28.671Z,47.89
2023-02-11T12:13:09.177Z,47.93
2023-02-11T12:16:34.234Z,47.74
2023-02-11T12:19:50.757Z,47.53
2023-02-11T12:23:01.562Z,47.42
2023-02-11T12:26:19.443Z,47.24
2023-02-11T12:29:27.069Z,47.01
2023-02-11T12:32:33.467Z,46.73
2023-02-11T12:36:07.708Z,46.45
2023-02-11T12:39:22.623Z,46.00
2023-02-11T12:42:57.180Z,45.66
2023-02-11T12:46:21.185Z,45.45
2023-02-11T12:49:54.759Z,45.26
2023-02-11T12:53:14.245Z,44.97
2023-02-11T12:56:18.866Z,44.66
2023-02-11T12:59:20.527Z,44.53
2023-02-11T13:02:31.016Z,44.19
2023-02-11T13:05:45.284Z,43.95
2023-02-11T13:09:01.146Z,43.88
2023-02-11T13:12:24.108Z,43.82
2023-02-11T13:15:26.253Z,43.74
2023-02-11T13:18:44.969Z,43.47
2023-02-11T13:22:02.161Z,43.34
2023-02-11T13:25:32.688Z,43.29
2023-02-11T13:28:45.212Z,43.09
2023-02-11T13:31:55.467Z,43.03
2023-02-11T13:34:58.888Z,42.94
2023-02-11T13:38:03.330Z,42.83
2023-02-11T13:41:19.438Z,42.65
2023-02-11T13:44:26.086Z,42.78
2023-02-11T13:47:31.822Z,42.78
2023-02-11T13:50:38.311Z,42.73
2023-02-11T13:53:51.652Z,42.56
2023-02-11T13:57:21.238Z,42.52
2023-02-11T14:00:47.054Z,42.53
2023-02-11T14:04:32.760Z,42.50
2023-02-11T14:07:53.689Z,42.45
2023-02-11T14:10:58.024Z,42.35
2023-02-11T14:14:25.114Z,41.99
2023-02-11T14:17:31.197Z,41.88
2023-02-11T14:20:38.013Z,41.86
2023-02-11T14:23:40.633Z,41.78
2023-02-11T14:26:47.229Z,41.57
2023-02-11T14:30:18.743Z,41.31
2023-02-11T14:33:46.693Z,41.22
2023-02-11T14:37:06.191Z,41.04
2023-02-11T14:40:20.524Z,40.88
2023-02-11T14:43:29.643Z,40.81
2023-02-11T14:46:35.588Z,40.78
2023-02-11T14:49:39.844Z,40.56
2023-02-11T14:52:43.466Z,40.41
2023-02-11T14:55:49.006Z,40.26
2023-02-11T14:58:51.983Z,40.16
2023-02-11T15:01:56.853Z,39.96
2023-02-11T15:05:20.498Z,39.98
2023-02-11T15:08:22.280Z,39.75
2023-02-11T15:11:25.583Z,39.66
2023-02-11T15:14:31.549Z,39.52
2023-02-11T15:17:33.385Z,39.42
2023-02-11T15:20:36.089Z,39.45
2023-02-11T15:23:39.109Z,39.45
2023-02-11T15:26:40.924Z,39.43
2023-02-11T15:29:45.488Z,39.36
2023-02-11T15:32:47.731Z,39.31
2023-02-11T15:35:49.491Z,39.10
2023-02-11T15:39:17.489Z,39.20
2023-02-11T15:42:40.850Z,39.09
2023-02-11T15:45:52.428Z,39.06
2023-02-11T15:48:55.524Z,38.98
2023-02-11T15:51:58.104Z,38.92
2023-02-11T15:55:01.713Z,38.89
2023-02-11T15:58:03.466Z,38.70
2023-02-11T16:01:05.945Z,38.61
2023-02-11T16:04:09.070Z,38.41
2023-02-11T16:07:37.844Z,38.33
2023-02-11T16:10:39.534Z,38.34
2023-02-11T16:13:47.578Z,38.28
2023-02-11T16:16:55.178Z,38.20
2023-02-11T16:19:56.936Z,38.16
2023-02-11T16:22:58.729Z,38.28
2023-02-11T16:26:20.983Z,38.27
2023-02-11T16:29:28.147Z,38.33
2023-02-11T16:32:30.847Z,38.32
2023-02-11T16:35:32.611Z,38.52
2023-02-11T16:38:34.369Z,38.68
2023-02-11T16:41:36.132Z,38.73
2023-02-11T16:44:37.841Z,38.93
2023-02-11T16:47:42.119Z,39.13
2023-02-11T16:50:44.590Z,39.17
2023-02-11T16:53:46.484Z,39.37
2023-02-11T16:56:49.152Z,39.54
2023-02-11T16:59:51.944Z,39.61
2023-02-11T17:02:53.902Z,39.73
2023-02-11T17:05:56.096Z,39.88
2023-02-11T17:08:57.872Z,40.12
2023-02-11T17:12:00.408Z,40.33
2023-02-11T17:15:02.162Z,40.47
2023-02-11T17:18:04.094Z,40.65
2023-02-11T17:21:07.185Z,40.80
2023-02-11T17:24:08.946Z,40.97
2023-02-11T17:27:12.111Z,41.08
2023-02-11T17:30:14.470Z,41.26
2023-02-11T17:33:16.374Z,41.42
2023-02-11T17:36:21.870Z,41.77
2023-02-11T17:39:24.064Z,42.02
2023-02-11T17:42:25.802Z,42.17
2023-02-11T17:45:28.010Z,42.46
2023-02-11T17:48:29.941Z,42.53
2023-02-11T17:51:34.784Z,42.78
2023-02-11T17:54:38.199Z,42.86
2023-02-11T17:57:40.053Z,43.08
2023-02-11T18:00:42.981Z,43.34
2023-02-11T18:03:45.036Z,43.61
2023-02-11T18:06:47.004Z,43.65
2023-02-11T18:09:48.846Z,43.84
2023-02-11T18:12:53.076Z,44.05
2023-02-11T18:15:55.463Z,44.31
2023-02-11T18:18:58.410Z,44.61
2023-02-11T18:22:01.143Z,44.87
2023-02-11T18:25:03.205Z,45.10
2023-02-11T18:28:05.372Z,45.23
2023-02-11T18:31:08.383Z,45.53
2023-02-11T18:34:11.857Z,45.76
2023-02-11T18:37:14.657Z,45.93
2023-02-11T18:40:16.504Z,46.11
2023-02-11T18:43:19.861Z,46.31
2023-02-11T18:46:21.579Z,46.37
2023-02-11T18:49:23.543Z,46.49
2023-02-11T18:52:25.396Z,46.63
2023-02-11T18:55:27.244Z,46.89
2023-02-11T18:58:29.023Z,46.81
2023-02-11T19:01:31.755Z,47.07
2023-02-11T19:04:37.378Z,47.27
2023-02-11T19:07:39.141Z,47.45
2023-02-11T19:10:42.903Z,47.69
2023-02-11T19:13:45.136Z,47.93
2023-02-11T19:16:47.841Z,48.10
2023-02-11T19:19:49.545Z,48.37
2023-02-11T19:22:51.247Z,48.51
2023-02-11T19:25:53.156Z,48.60
2023-02-11T19:28:55.689Z,48.86
2023-02-11T19:31:57.517Z,48.89
2023-02-11T19:34:59.379Z,49.06
2023-02-11T19:38:01.652Z,49.30
2023-02-11T19:41:03.418Z,49.37
2023-02-11T19:44:06.798Z,49.54
2023-02-11T19:47:10.349Z,49.93
2023-02-11T19:50:12.498Z,49.95
2023-02-11T19:53:14.190Z,50.23
2023-02-11T19:56:15.905Z,50.29
2023-02-11T19:59:22.188Z,50.49
2023-02-11T20:02:23.923Z,50.49
2023-02-11T20:05:25.706Z,50.71
2023-02-11T20:08:27.361Z,50.70
2023-02-11T20:11:30.561Z,50.71
2023-02-11T20:14:32.214Z,51.00
2023-02-11T20:17:33.983Z,50.98
2023-02-11T20:20:37.581Z,51.24
2023-02-11T20:23:40.827Z,51.24
2023-02-11T20:26:42.961Z,51.42
2023-02-11T20:29:44.632Z,51.60
2023-02-11T20:32:46.366Z,51.65
2023-02-11T20:35:55.302Z,51.75
2023-02-11T20:38:57.162Z,51.77
2023-02-11T20:41:58.851Z,52.02
2023-02-11T20:45:00.896Z,52.06
2023-02-11T20:48:02.552Z,52.16
2023-02-11T20:51:06.244Z,52.44
2023-02-11T20:54:12.491Z,52.54
2023-02-11T20:57:14.143Z,52.67
2023-02-11T21:00:16.358Z,52.83
2023-02-11T21:03:18.090Z,52.88
2023-02-11T21:06:21.426Z,52.94
2023-02-11T21:09:25.153Z,53.23
2023-02-11T21:12:26.990Z,53.33
2023-02-11T21:15:29.832Z,53.28
2023-02-11T21:18:31.612Z,53.38
2023-02-11T21:21:35.579Z,53.56
2023-02-11T21:24:37.297Z,53.58
2023-02-11T21:27:39.160Z,53.66
2023-02-11T21:30:41.584Z,53.77
2023-02-11T21:33:43.323Z,54.03
2023-02-11T21:36:45.399Z,54.14
2023-02-11T21:39:47.157Z,54.28
2023-02-11T21:42:48.779Z,54.46
2023-02-11T21:45:51.500Z,54.49
2023-02-11T21:48:53.564Z,54.52
2023-02-11T21:51:55.237Z,54.51
2023-02-11T21:54:56.986Z,54.61
2023-02-11T21:57:58.851Z,54.68
2023-02-11T22:01:00.761Z,54.65
2023-02-11T22:04:02.581Z,54.83
2023-02-11T22:07:04.447Z,55.08
2023-02-11T22:10:06.825Z,55.28
2023-02-11T22:13:08.594Z,55.78
2023-02-11T22:16:12.809Z,56.13
2023-02-11T22:19:14.883Z,56.48
2023-02-11T22:22:18.477Z,56.40
2023-02-11T22:25:20.095Z,56.44
2023-02-11T22:28:22.053Z,56.32
2023-02-11T22:31:26.353Z,56.40
2023-02-11T22:34:28.183Z,56.29
2023-02-11T22:37:29.861Z,56.23
2023-02-11T22:40:31.662Z,56.25
2023-02-11T22:43:33.493Z,56.36
2023-02-11T22:46:35.334Z,56.42
2023-02-11T22:49:37.707Z,56.49
2023-02-11T22:52:39.374Z,56.53
2023-02-11T22:55:41.178Z,56.53
2023-02-11T22:58:43.172Z,56.50
2023-02-11T23:01:45.185Z,56.48
2023-02-11T23:04:49.658Z,56.56
2023-02-11T23:07:55.703Z,56.68
2023-02-11T23:11:04.422Z,56.87
2023-02-11T23:14:08.707Z,56.86
2023-02-11T23:17:10.464Z,56.90
2023-02-11T23:20:12.642Z,57.17
2023-02-11T23:23:14.346Z,57.05
2023-02-11T23:26:18.631Z,57.37
2023-02-11T23:29:20.300Z,57.37
2023-02-11T23:32:23.361Z,57.36
2023-02-11T23:35:25.351Z,57.84
2023-02-11T23:38:26.995Z,58.32
2023-02-11T23:41:28.957Z,59.06
2023-02-11T23:44:30.726Z,59.12
2023-02-11T23:47:32.486Z,59.02
2023-02-11T23:50:34.773Z,59.00
2023-02-11T23:53:40.134Z,59.08
2023-02-11T23:56:44.738Z,59.08
2023-02-11T23:59:49.898Z,59.15
